• Join FlightAware (Why Join?)
  • Login
  • US Flag 
11:25AM EDT


 

Airport Tracker/Info


-or-


 

Live Flight TrackerFlight Track Log ✈ N441S ✈ 21-Aug-2013 ✈ KMSO - KMSO

Flight Track Log - Related Links

Times and Time Zones

All times are in EDT time to prevent confusion due to time zone crossing. See the N441S flight status page for this flight to view local times or setup timezone preferences in your user account.

Time Position Orientation Groundspeed Altitude Reporting Facility
EDT Latitude Longitude Course Direction KTS MPH feet Rate Location/Type
02:20PM 46.9606 -114.1067 146° Southeast 137 158 6,200  Level Salt Lake Center
02:21PM 47.0006 -114.0939 12° North 147 169 8,200 1,980 Climbing Salt Lake Center
02:22PM 47.0486 -114.0950 359° North 160 184 10,400 1,980 Climbing Salt Lake Center
02:23PM 47.0944 -114.0967 359° North 164 189 12,400 1,560 Climbing Salt Lake Center
02:24PM 47.1467 -114.0983 359° North 176 203 13,700 1,260 Climbing Salt Lake Center
02:25PM 46.9163 -114.0906 North  Level Estimated
02:25PM 47.2003 -114.0994 359° North 218 251 15,100  Level Salt Lake Center
02:26PM 46.9163 -114.0906 146° Southeast  Level Estimated
02:26PM 47.2519 -114.1025 358° North 184 212 17,100  Level Salt Lake Center
02:27PM 47.3117 -114.1042 359° North 180 207 18,800 1,500 Climbing Salt Lake Center
02:28PM 47.3628 -114.1047 360° North 183 211 20,300 1,380 Climbing Salt Lake Center
02:29PM 47.4144 -114.1078 358° North 186 214 21,700 1,200 Climbing Salt Lake Center
02:31PM 47.4675 -114.1089 359° North 189 217 22,900 1,080 Climbing Salt Lake Center
02:32PM 47.5233 -114.1117 358° North 199 229 24,000 960 Climbing Salt Lake Center
02:33PM 47.5811 -114.1122 360° North 206 237 25,000 1,140 Climbing Salt Lake Center
02:34PM 47.6481 -114.1156 358° North 203 234 26,400 1,140 Climbing Salt Lake Center
02:35PM 47.7042 -114.1175 359° North 204 235 27,400 900 Climbing Salt Lake Center
02:36PM 47.7600 -114.1194 359° North 202 232 28,300 720 Climbing Salt Lake Center
02:37PM 47.8181 -114.1217 359° North 208 239 29,000 660 Climbing Salt Lake Center
02:38PM 47.8775 -114.1233 359° North 214 246 29,700 720 Climbing Salt Lake Center
02:39PM 47.9497 -114.1256 359° North 217 250 30,500 720 Climbing Salt Lake Center
02:40PM 48.0103 -114.1283 358° North 221 254 31,200 600 Climbing Salt Lake Center
02:41PM 48.0714 -114.1306 359° North 222 255 31,800 480 Climbing Salt Lake Center
02:42PM 48.1328 -114.1333 358° North 222 255 32,300 480 Climbing Salt Lake Center
02:43PM 48.1936 -114.1358 358° North 221 254 32,900 300 Climbing Salt Lake Center
02:44PM 48.2686 -114.1389 358° North 224 258 33,000  Climbing Salt Lake Center
02:45PM 48.3364 -114.1419 358° North 237 273 33,000  Level Salt Lake Center
02:46PM 48.4092 -114.1442 359° North 255 293 33,000  Level Salt Lake Center
02:47PM 48.4831 -114.1469 359° North 263 303 33,000  Level Salt Lake Center
02:48PM 48.5575 -114.1489 359° North 267 307 33,000  Level Salt Lake Center
02:49PM 48.6478 -114.1456 North 271 312 33,000  Level Salt Lake Center
02:50PM 48.7228 -114.1444 North 271 312 33,000  Level Salt Lake Center
02:51PM 48.7969 -114.1450 360° North 268 308 33,000  Level Salt Lake Center
02:52PM 48.8708 -114.1419 North 267 307 33,000  Level Salt Lake Center
02:53PM 48.9439 -114.1531 354° North 265 305 33,000  Level Salt Lake Center
02:54PM 49.0194 -114.1500 North 271 312 33,000  Level Salt Lake Center
02:55PM 49.1094 -114.1414 North 272 313 33,000  Level Salt Lake Center
02:56PM 49.1850 -114.1394 North 272 313 33,000  Level Salt Lake Center
02:57PM 49.2100 -114.0075 74° East 340 391 33,000  Level Salt Lake Center
02:58PM 49.2692 -113.9961 North 258 297 33,000  Level Salt Lake Center
02:59PM 49.2639 -114.0811 265° West 209 241 33,000  Level Salt Lake Center
03:00PM 49.2433 -114.1589 248° West 212 244 33,000  Level Salt Lake Center
03:02PM 49.1581 -114.1675 184° South 255 293 33,000  Level Salt Lake Center
03:03PM 49.0875 -114.1728 183° South 255 293 33,000  Level Salt Lake Center
03:04PM 49.0144 -114.1761 182° South 262 302 33,000  Level Salt Lake Center
03:05PM 48.9425 -114.1806 182° South 260 299 33,000  Level Salt Lake Center
03:06PM 48.8694 -114.1844 182° South 263 303 33,000  Level Salt Lake Center
03:07PM 48.7961 -114.1889 182° South 264 304 33,000  Level Salt Lake Center
03:08PM 48.7097 -114.1925 182° South 261 300 33,000  Level Salt Lake Center
03:09PM 48.6369 -114.1969 182° South 263 303 33,000  Level Salt Lake Center
03:10PM 48.5642 -114.2014 182° South 261 300 33,000  Level Salt Lake Center
03:11PM 48.4919 -114.2053 182° South 260 299 33,000  Level Salt Lake Center
03:12PM 48.4197 -114.2103 183° South 262 302 33,000  Level Salt Lake Center
03:13PM 48.3472 -114.2144 182° South 261 300 33,000  Level Salt Lake Center
03:14PM 48.2594 -114.2169 181° South 262 302 33,000  Level Salt Lake Center
03:15PM 48.1875 -114.2186 181° South 260 299 33,000  Level Salt Lake Center
03:16PM 48.1147 -114.2233 182° South 260 299 33,000  Level Salt Lake Center
03:17PM 48.0411 -114.2275 182° South 261 300 33,000  Level Salt Lake Center
03:18PM 47.9661 -114.2317 182° South 264 304 33,000  Level Salt Lake Center
03:19PM 47.8897 -114.2350 182° South 270 311 33,000  Level Salt Lake Center
03:20PM 47.8161 -114.2400 183° South 266 306 33,000  Level Salt Lake Center
03:21PM 47.7447 -114.2447 183° South 261 300 33,000  Level Salt Lake Center
03:22PM 47.6731 -114.2483 182° South 257 296 33,000  Level Salt Lake Center
03:23PM 47.5858 -114.2525 182° South 261 300 33,000  Level Salt Lake Center
03:24PM 47.5131 -114.2581 183° South 262 302 33,000  Level Salt Lake Center
03:25PM 47.4400 -114.2617 182° South 263 303 33,000  Level Salt Lake Center
03:26PM 47.3669 -114.2639 181° South 264 304 33,000  Level Salt Lake Center
03:27PM 47.2942 -114.2681 182° South 264 304 33,000  Level Salt Lake Center
03:28PM 47.2208 -114.2728 183° South 264 304 33,000  Level Salt Lake Center
03:29PM 47.1333 -114.2772 182° South 265 305 33,000  Level Salt Lake Center
03:30PM 47.0639 -114.2508 165° South 284 327 33,000  Level Salt Lake Center
03:31PM 47.0964 -114.1631 61° Northeast 298 343 33,000  Level Salt Lake Center
03:33PM 47.1697 -114.1633 360° North 266 306 33,000  Level Salt Lake Center
03:34PM 47.2458 -114.1575 North 272 313 33,000  Level Salt Lake Center
03:35PM 47.3225 -114.1544 North 276 318 33,000  Level Salt Lake Center
03:36PM 47.4139 -114.1483 North 275 316 33,000  Level Salt Lake Center
03:37PM 47.4900 -114.1442 North 275 316 33,000  Level Salt Lake Center
03:38PM 47.5664 -114.1406 North 275 316 33,000  Level Salt Lake Center
03:39PM 47.6431 -114.1361 North 276 318 33,000  Level Salt Lake Center
03:40PM 47.7194 -114.1317 North 276 318 33,000  Level Salt Lake Center
03:41PM 47.8108 -114.1269 North 276 318 33,000  Level Salt Lake Center
03:42PM 47.8872 -114.1214 North 278 320 33,000  Level Salt Lake Center
03:43PM 47.9639 -114.1178 North 279 321 33,000  Level Salt Lake Center
03:44PM 48.0394 -114.1142 North 276 318 33,000  Level Salt Lake Center
03:45PM 48.1153 -114.1083 North 276 318 33,000  Level Salt Lake Center
03:46PM 48.2067 -114.1047 North 275 316 33,000  Level Salt Lake Center
03:47PM 48.2828 -114.1003 North 276 318 33,000  Level Salt Lake Center
03:48PM 48.3594 -114.0969 North 277 319 33,000  Level Salt Lake Center
03:49PM 48.4364 -114.0919 North 278 320 33,000  Level Salt Lake Center
03:50PM 48.5142 -114.0875 North 279 321 33,000  Level Salt Lake Center
03:51PM 48.5908 -114.0833 North 278 320 33,000  Level Salt Lake Center
03:52PM 48.6822 -114.0778 North 276 318 33,000  Level Salt Lake Center
03:53PM 48.7592 -114.0739 North 278 320 33,000  Level Salt Lake Center
03:54PM 48.8361 -114.0697 North 277 319 33,000  Level Salt Lake Center
03:55PM 48.9122 -114.0639 North 276 318 33,000  Level Salt Lake Center
03:56PM 48.9892 -114.0600 North 277 319 33,000  Level Salt Lake Center
03:57PM 49.0669 -114.0556 North 280 322 33,000  Level Salt Lake Center
03:58PM 49.1589 -114.0514 North 278 320 33,000  Level Salt Lake Center
03:59PM 49.2364 -114.0289 11° North 284 327 33,000  Level Salt Lake Center
04:00PM 49.2161 -113.9097 105° East 319 367 33,000  Level Salt Lake Center
04:01PM 49.1547 -113.9389 197° South 236 272 33,000  Level Salt Lake Center
04:02PM 49.0806 -113.9372 179° South 259 298 33,000  Level Salt Lake Center
04:03PM 48.9500 -113.9500 184° South 260 299 33,000  Level Edmonton Center
04:04PM 48.8833 -113.9667 189° South 260 299 33,000  Level Edmonton Center
04:05PM 48.8167 -113.9667 180° South 260 299 33,000  Level Edmonton Center
04:06PM 48.7914 -113.9564 165° South 262 302 33,000  Level Salt Lake Center
04:07PM 48.7186 -113.9600 182° South 262 302 33,000  Level Salt Lake Center
04:08PM 48.6456 -113.9639 182° South 263 303 33,000  Level Salt Lake Center
04:09PM 48.5728 -113.9700 183° South 262 302 33,000  Level Salt Lake Center
04:10PM 48.4997 -113.9736 182° South 263 303 33,000  Level Salt Lake Center
04:12PM 48.4119 -113.9781 182° South 263 303 33,000  Level Salt Lake Center
04:13PM 48.3394 -113.9825 182° South 261 300 33,000  Level Salt Lake Center
04:14PM 48.2661 -113.9872 182° South 262 302 33,000  Level Salt Lake Center
04:15PM 48.1922 -113.9911 182° South 265 305 33,000  Level Salt Lake Center
04:16PM 48.1183 -113.9950 182° South 264 304 33,000  Level Salt Lake Center
04:17PM 48.0439 -113.9994 182° South 266 306 33,000  Level Salt Lake Center
04:18PM 47.9697 -114.0033 182° South 265 305 33,000  Level Salt Lake Center
04:19PM 47.8958 -114.0081 182° South 264 304 33,000  Level Salt Lake Center
04:20PM 47.8217 -114.0131 183° South 264 304 33,000  Level Salt Lake Center
04:21PM 47.7333 -114.0169 182° South 264 304 33,000  Level Salt Lake Center
04:22PM 47.6592 -114.0214 182° South 265 305 33,000  Level Salt Lake Center
04:23PM 47.5844 -114.0258 182° South 268 308 33,000  Level Salt Lake Center
04:24PM 47.5106 -114.0306 182° South 268 308 33,000  Level Salt Lake Center
04:25PM 47.4367 -114.0339 182° South 266 306 33,000  Level Salt Lake Center
04:26PM 47.3631 -114.0392 183° South 265 305 33,000  Level Salt Lake Center
04:27PM 47.2894 -114.0439 182° South 266 306 33,000  Level Salt Lake Center
04:28PM 47.2006 -114.0486 182° South 267 307 33,000  Level Salt Lake Center
04:29PM 47.1264 -114.0519 182° South 267 307 33,000  Level Salt Lake Center
04:30PM 47.0539 -114.0397 173° South 271 312 33,000  Level Salt Lake Center
04:31PM 47.0786 -113.9392 70° East 302 348 33,000  Level Salt Lake Center
04:32PM 47.1564 -113.9247 North 283 326 33,000  Level Salt Lake Center
04:33PM 47.2342 -113.9142 North 281 323 33,000  Level Salt Lake Center
04:34PM 47.3281 -113.8892 10° North 287 330 33,000  Level Salt Lake Center
04:35PM 47.4061 -113.8650 12° North 289 333 33,000  Level Salt Lake Center
04:36PM 47.4850 -113.8469 North 288 331 33,000  Level Salt Lake Center
04:37PM 47.5639 -113.8261 10° North 288 331 33,000  Level Salt Lake Center
04:38PM 47.6408 -113.8153 North 281 323 33,000  Level Salt Lake Center
04:39PM 47.7189 -113.7978 North 284 327 33,000  Level Salt Lake Center
04:40PM 47.8133 -113.7758 North 288 331 33,000  Level Salt Lake Center
04:41PM 47.8908 -113.7542 11° North 287 330 33,000  Level Salt Lake Center
04:42PM 47.9683 -113.7206 16° North 291 335 33,000  Level Salt Lake Center
04:43PM 48.0464 -113.6992 10° North 288 331 33,000  Level Salt Lake Center
04:45PM 48.1239 -113.6714 13° North 289 333 33,000  Level Salt Lake Center
04:46PM 48.2167 -113.6314 16° North 290 334 33,000  Level Salt Lake Center
04:47PM 48.2942 -113.6261 North 282 325 33,000  Level Salt Lake Center
04:48PM 48.3681 -113.6303 358° North 271 312 33,000  Level Salt Lake Center
04:49PM 48.4439 -113.6342 358° North 271 312 33,000  Level Salt Lake Center
04:50PM 48.5208 -113.6381 358° North 276 318 33,000  Level Salt Lake Center
04:51PM 48.5964 -113.6425 358° North 275 316 33,000 60 Level Salt Lake Center
04:52PM 48.6875 -113.6475 358° North 274 315 33,200 420 Climbing Salt Lake Center
04:53PM 48.6939 -113.7097 279° West 223 257 33,900 360 Climbing Salt Lake Center
04:54PM 48.6342 -113.7278 191° South 216 249 34,000  Climbing Salt Lake Center
04:55PM 48.5661 -113.7322 182° South 235 270 34,000  Level Salt Lake Center
04:56PM 48.4953 -113.7361 182° South 248 285 34,000  Level Salt Lake Center
04:57PM 48.4222 -113.7272 175° South 264 304 34,000  Level Salt Lake Center
04:58PM 48.4347 -113.6208 80° East 310 357 34,000  Level Salt Lake Center
04:59PM 48.5167 -113.6397 351° North 255 293 34,000  Level Salt Lake Center
05:00PM 48.5897 -113.6411 359° North 262 302 34,000  Level Salt Lake Center
05:01PM 48.6639 -113.6453 358° North 265 305 34,000  Level Salt Lake Center
05:02PM 48.7392 -113.6489 358° North 268 308 34,000  Level Salt Lake Center
05:03PM 48.8133 -113.6528 358° North 268 308 34,000  Level Salt Lake Center
05:04PM 48.9028 -113.6583 358° North 270 311 34,000  Level Salt Lake Center
05:05PM 48.9500 -113.6833 341° North 270 311 34,000  Level Edmonton Center
05:06PM 49.0167 -113.6667 North 270 311 34,000  Level Edmonton Center
05:07PM 49.1000 -113.6833 353° North 270 311 34,000  Level Edmonton Center
05:08PM 49.1667 -113.6500 18° North 280 322 34,000  Level Edmonton Center
05:09PM 49.1667 -113.5500 90° East 320 368 34,000  Level Edmonton Center
05:10PM 49.1000 -113.4000 124° Southeast 310 357 34,000  Level Edmonton Center
05:11PM 49.1667 -113.3667 18° North 290 334 34,000  Level Edmonton Center
05:12PM 49.1333 -113.4167 224° Southwest 200 230 34,000  Level Edmonton Center
05:13PM 49.0833 -113.4500 204° Southwest 240 276 34,000  Level Edmonton Center
05:14PM 49.0167 -113.4667 189° South 240 276 34,000  Level Edmonton Center
05:15PM 48.9500 -113.5000 198° South 250 288 34,000  Level Edmonton Center
05:16PM 48.8667 -113.5167 187° South 250 288 34,000  Level Edmonton Center
05:17PM 48.8000 -113.5333 189° South 250 288 34,000  Level Edmonton Center
05:18PM 48.7333 -113.5500 189° South 250 288 34,000  Level Edmonton Center
05:19PM 48.6667 -113.5833 198° South 250 288 34,000 -60 Level Edmonton Center
05:20PM 48.6000 -113.6000 189° South 250 288 33,900 -420 Descending Edmonton Center
05:21PM 48.6022 -113.5919 67° East 254 292 33,400 -1,200 Descending Salt Lake Center
05:22PM 48.5267 -113.6175 193° South 269 310 32,100 -1,320 Descending Salt Lake Center
05:23PM 48.4428 -113.6417 191° South 293 337 30,700 -1,560 Descending Salt Lake Center
05:24PM 48.3422 -113.6719 191° South 306 352 28,900 -1,560 Descending Salt Lake Center
05:25PM 48.2625 -113.6961 191° South 296 341 27,500 -1,440 Descending Salt Lake Center
05:26PM 48.1842 -113.7192 191° South 289 333 26,000 -1,500 Descending Salt Lake Center
05:27PM 48.1042 -113.7439 192° South 291 335 24,500 -1,500 Descending Salt Lake Center
05:28PM 48.0228 -113.7675 191° South 295 339 23,000 -1,500 Descending Salt Lake Center
05:29PM 47.9417 -113.7906 191° South 296 341 21,400 -1,500 Descending Salt Lake Center
05:30PM 47.8611 -113.8144 191° South 294 338 20,000 -1,440 Descending Salt Lake Center
05:31PM 47.7808 -113.8389 192° South 294 338 18,500 -1,560 Descending Salt Lake Center
05:32PM 47.6850 -113.8675 191° South 292 336 16,800 -1,500 Descending Salt Lake Center
05:33PM 47.6039 -113.8900 191° South 293 337 15,500 -840 Descending Salt Lake Center
05:34PM 47.5339 -113.9125 192° South 259 298 15,100 -240 Descending Salt Lake Center
05:35PM 47.4675 -113.9308 191° South 244 281 15,100 -420 Level Salt Lake Center
05:36PM 47.3978 -113.9503 191° South 254 292 14,300 -1,020 Descending Salt Lake Center
05:37PM 47.3236 -113.9725 191° South 270 311 13,000 -1,260 Descending Salt Lake Center
05:38PM 47.2369 -113.9989 192° South 265 305 11,700 -1,200 Descending Salt Lake Center
05:39PM 47.1631 -114.0200 191° South 255 293 10,600 -900 Descending Salt Lake Center
05:40PM 47.0986 -114.0389 191° South 240 276 9,900 -1,080 Descending Salt Lake Center
05:41PM 47.0306 -114.0606 192° South 233 268 8,400 -1,140 Descending Salt Lake Center
05:42PM 46.9706 -114.0564 177° South 221 254 7,600 -1,020 Descending Salt Lake Center
05:43PM 46.9256 -114.0181 150° Southeast 189 217 6,400 -1,680 Descending Salt Lake Center
05:44PM 46.8864 -114.0369 198° South 171 197 4,200 -1,500 Descending Salt Lake Center
05:45PM 46.9075 -114.0778 307° West 128 147 3,300 -900 Descending Salt Lake Center